createdAt,value
2022-08-17T00:01:38.496Z,22.95
2022-08-17T00:04:19.107Z,22.93
2022-08-17T00:06:45.829Z,23.12
2022-08-17T00:09:18.263Z,23.19
2022-08-17T00:12:41.040Z,23.22
2022-08-17T00:14:35.003Z,23.20
2022-08-17T00:17:03.618Z,23.30
2022-08-17T00:19:32.445Z,23.27
2022-08-17T00:22:33.753Z,23.21
2022-08-17T00:24:49.867Z,23.05
2022-08-17T00:27:17.200Z,23.12
2022-08-17T00:29:45.731Z,23.21
2022-08-17T00:33:15.479Z,23.26
2022-08-17T00:35:00.530Z,22.77
2022-08-17T00:37:27.284Z,22.43
2022-08-17T00:39:53.960Z,22.63
2022-08-17T00:42:20.548Z,22.80
2022-08-17T00:44:47.268Z,22.80
2022-08-17T00:47:13.862Z,22.82
2022-08-17T00:49:40.446Z,22.80
2022-08-17T00:52:15.517Z,23.04
2022-08-17T00:54:46.990Z,22.83
2022-08-17T00:57:25.004Z,22.95
2022-08-17T01:00:03.214Z,23.07
2022-08-17T01:02:41.768Z,22.88
2022-08-17T01:05:19.175Z,22.93
2022-08-17T01:07:47.811Z,22.79
2022-08-17T01:10:58.995Z,22.63
2022-08-17T01:13:04.069Z,22.55
2022-08-17T01:15:33.795Z,22.60
2022-08-17T01:18:00.509Z,22.88
2022-08-17T01:20:27.631Z,22.94
2022-08-17T01:22:54.283Z,22.50
2022-08-17T01:25:21.525Z,22.38
2022-08-17T01:27:48.698Z,22.43
2022-08-17T01:30:58.802Z,22.36
2022-08-17T01:33:04.291Z,22.27
2022-08-17T01:35:30.888Z,22.39
2022-08-17T01:37:57.573Z,22.55
2022-08-17T01:40:39.736Z,22.67
2022-08-17T01:43:19.931Z,22.19
2022-08-17T01:46:03.874Z,22.09
2022-08-17T01:48:33.455Z,22.39
2022-08-17T01:51:00.378Z,22.47
2022-08-17T01:53:32.811Z,22.21
2022-08-17T01:56:04.974Z,21.90
2022-08-17T01:58:34.062Z,21.41
2022-08-17T02:01:02.765Z,21.19
2022-08-17T02:03:30.219Z,21.58
2022-08-17T02:05:57.267Z,21.42
2022-08-17T02:08:37.274Z,21.80
2022-08-17T02:11:11.493Z,22.09
2022-08-17T02:13:38.458Z,22.16
2022-08-17T02:16:05.468Z,22.01
2022-08-17T02:18:32.039Z,21.90
2022-08-17T02:20:58.933Z,21.64
2022-08-17T02:23:28.522Z,22.19
2022-08-17T02:25:57.638Z,21.73
2022-08-17T02:28:24.587Z,21.87
2022-08-17T02:31:02.705Z,21.54
2022-08-17T02:33:41.680Z,21.75
2022-08-17T02:36:12.637Z,21.78
2022-08-17T02:38:40.574Z,22.06
2022-08-17T02:41:07.203Z,22.06
2022-08-17T02:43:34.042Z,21.88
2022-08-17T02:46:00.718Z,21.94
2022-08-17T02:48:28.068Z,21.53
2022-08-17T02:50:57.984Z,20.97
2022-08-17T02:53:24.563Z,20.96
2022-08-17T02:55:52.490Z,21.08
2022-08-17T02:58:34.635Z,20.67
2022-08-17T03:01:05.793Z,20.48
2022-08-17T03:03:33.064Z,21.04
2022-08-17T03:05:59.702Z,21.29
2022-08-17T03:08:27.242Z,21.39
2022-08-17T03:10:54.090Z,20.98
2022-08-17T03:13:20.828Z,20.26
2022-08-17T03:15:48.397Z,20.78
2022-08-17T03:18:25.409Z,20.68
2022-08-17T03:20:58.650Z,20.98
2022-08-17T03:23:27.295Z,20.79
2022-08-17T03:25:54.834Z,21.06
2022-08-17T03:28:23.443Z,21.29
2022-08-17T03:30:51.245Z,21.47
2022-08-17T03:33:19.115Z,21.43
2022-08-17T03:35:46.050Z,21.06
2022-08-17T03:38:15.838Z,21.12
2022-08-17T03:40:57.942Z,20.94
2022-08-17T03:43:28.111Z,20.89
2022-08-17T03:46:27.823Z,20.95
2022-08-17T03:49:14.835Z,20.61
2022-08-17T03:52:00.083Z,20.57
2022-08-17T03:54:45.360Z,20.74
2022-08-17T03:57:12.401Z,20.99
2022-08-17T03:59:39.549Z,20.90
2022-08-17T04:02:21.346Z,20.98
2022-08-17T04:04:50.800Z,20.47
2022-08-17T04:07:19.523Z,20.31
2022-08-17T04:09:46.413Z,20.39
2022-08-17T04:12:16.121Z,20.16
2022-08-17T04:14:51.920Z,20.12
2022-08-17T04:17:27.668Z,20.32
2022-08-17T04:19:55.483Z,20.35
2022-08-17T04:22:31.024Z,20.03
2022-08-17T04:25:29.760Z,19.56
2022-08-17T04:27:57.006Z,20.25
2022-08-17T04:30:23.680Z,20.23
2022-08-17T04:33:04.002Z,20.28
2022-08-17T04:35:37.582Z,20.13
2022-08-17T04:38:05.059Z,20.41
2022-08-17T04:40:50.312Z,20.41
2022-08-17T04:43:19.752Z,20.40
2022-08-17T04:46:07.478Z,20.59
2022-08-17T04:48:37.729Z,20.56
2022-08-17T04:51:11.730Z,20.72
2022-08-17T04:53:42.108Z,20.97
2022-08-17T04:56:11.653Z,20.97
2022-08-17T04:58:49.109Z,21.07
2022-08-17T05:01:17.445Z,20.86
2022-08-17T05:03:50.146Z,20.85
2022-08-17T05:06:16.795Z,20.86
2022-08-17T05:08:43.447Z,20.74
2022-08-17T05:11:10.418Z,20.59
2022-08-17T05:13:37.115Z,20.55
2022-08-17T05:16:04.595Z,20.40
2022-08-17T05:18:32.002Z,20.64
2022-08-17T05:20:58.902Z,20.67
2022-08-17T05:23:27.681Z,20.71
2022-08-17T05:26:09.525Z,20.63
2022-08-17T05:28:39.777Z,20.87
2022-08-17T05:31:06.854Z,20.93
2022-08-17T05:33:38.193Z,21.14
2022-08-17T05:36:08.819Z,21.07
2022-08-17T05:38:55.403Z,21.19
2022-08-17T05:41:21.970Z,21.18
2022-08-17T05:43:51.837Z,21.30
2022-08-17T05:46:28.536Z,21.30
2022-08-17T05:49:08.050Z,21.17
2022-08-17T05:52:01.197Z,21.41
2022-08-17T05:54:43.005Z,21.64
2022-08-17T05:57:35.979Z,21.57
2022-08-17T06:00:30.826Z,21.64
2022-08-17T06:03:10.751Z,21.65
2022-08-17T06:05:59.829Z,21.67
2022-08-17T06:08:56.246Z,21.78
2022-08-17T06:11:28.841Z,21.96
2022-08-17T06:14:04.400Z,22.07
2022-08-17T06:16:38.559Z,22.02
2022-08-17T06:19:14.799Z,22.07
2022-08-17T06:21:46.625Z,22.18
2022-08-17T06:24:31.521Z,22.32
2022-08-17T06:27:06.460Z,22.29
2022-08-17T06:29:49.986Z,22.17
2022-08-17T06:32:17.198Z,22.25
2022-08-17T06:34:46.022Z,22.34
2022-08-17T06:37:19.011Z,22.49
2022-08-17T06:39:58.262Z,22.46
2022-08-17T06:42:54.738Z,22.39
2022-08-17T06:45:42.099Z,22.53
2022-08-17T06:48:25.803Z,22.58
2022-08-17T06:50:58.616Z,22.59
2022-08-17T06:53:45.182Z,22.71
2022-08-17T06:56:21.812Z,22.79
2022-08-17T06:58:49.571Z,23.08
2022-08-17T07:01:21.048Z,23.10
2022-08-17T07:03:59.056Z,23.00
2022-08-17T07:06:40.812Z,23.06
2022-08-17T07:09:13.040Z,23.14
2022-08-17T07:11:56.520Z,23.26
2022-08-17T07:14:37.766Z,23.47
2022-08-17T07:17:14.233Z,23.47
2022-08-17T07:19:45.662Z,23.47
2022-08-17T07:22:55.263Z,23.45
2022-08-17T07:25:26.227Z,23.47
2022-08-17T07:27:55.957Z,23.35
2022-08-17T07:30:22.521Z,23.34
2022-08-17T07:32:53.415Z,23.43
2022-08-17T07:35:22.986Z,23.46
2022-08-17T07:38:25.788Z,23.40
2022-08-17T07:40:57.716Z,23.39
2022-08-17T07:43:31.870Z,23.47
2022-08-17T07:46:32.608Z,23.53
2022-08-17T07:49:08.057Z,23.60
2022-08-17T07:51:36.629Z,23.54
2022-08-17T07:54:15.201Z,23.53
2022-08-17T07:56:50.976Z,23.66
2022-08-17T07:59:24.218Z,23.56
2022-08-17T08:01:57.996Z,23.43
2022-08-17T08:05:00.241Z,23.49
2022-08-17T08:07:20.914Z,23.66
2022-08-17T08:10:00.880Z,23.58
2022-08-17T08:12:43.409Z,23.52
2022-08-17T08:15:18.505Z,23.51
2022-08-17T08:17:52.968Z,23.58
2022-08-17T08:20:55.541Z,23.54
2022-08-17T08:23:54.400Z,23.50
2022-08-17T08:26:39.553Z,23.51
2022-08-17T08:29:29.343Z,23.57
2022-08-17T08:32:03.570Z,23.39
2022-08-17T08:35:01.163Z,23.42
2022-08-17T08:37:42.866Z,23.55
2022-08-17T08:40:47.570Z,23.55
2022-08-17T08:43:31.074Z,23.67
2022-08-17T08:46:05.018Z,23.75
2022-08-17T08:49:12.216Z,23.76
2022-08-17T08:51:55.549Z,23.63
2022-08-17T08:54:51.950Z,23.69
2022-08-17T08:57:34.505Z,23.70
2022-08-17T09:00:27.614Z,23.52
2022-08-17T09:03:31.732Z,23.42
2022-08-17T09:06:33.408Z,23.62
2022-08-17T09:09:47.909Z,23.69
2022-08-17T09:12:29.806Z,23.77
2022-08-17T09:15:17.604Z,23.90
2022-08-17T09:18:28.455Z,23.72
2022-08-17T09:20:51.004Z,23.69
2022-08-17T09:23:32.552Z,23.81
2022-08-17T09:26:20.995Z,23.82
2022-08-17T09:28:51.096Z,23.79
2022-08-17T09:31:23.972Z,23.58
2022-08-17T09:33:51.442Z,23.73
2022-08-17T09:36:26.234Z,23.91
2022-08-17T09:39:01.627Z,23.90
2022-08-17T09:41:58.005Z,23.79
2022-08-17T09:44:42.730Z,23.84
2022-08-17T09:47:09.913Z,23.89
2022-08-17T09:49:49.643Z,24.12
2022-08-17T09:52:27.424Z,24.02
2022-08-17T09:54:56.801Z,24.22
2022-08-17T09:57:30.200Z,24.07
2022-08-17T10:00:25.464Z,24.03
2022-08-17T10:03:00.736Z,24.48
2022-08-17T10:05:37.635Z,24.64
2022-08-17T10:08:27.600Z,24.64
2022-08-17T10:11:54.380Z,24.69
2022-08-17T10:14:38.085Z,24.65
2022-08-17T10:17:28.076Z,24.66
2022-08-17T10:20:11.113Z,24.75
2022-08-17T10:23:22.701Z,24.72
2022-08-17T10:26:14.519Z,24.56
2022-08-17T10:28:41.054Z,24.72
2022-08-17T10:31:33.802Z,24.86
2022-08-17T10:34:23.248Z,25.03
2022-08-17T10:37:31.468Z,24.87
2022-08-17T10:40:05.315Z,25.05
2022-08-17T10:42:50.122Z,25.06
2022-08-17T10:45:26.173Z,25.08
2022-08-17T10:48:21.567Z,25.09
2022-08-17T10:51:01.439Z,24.99
2022-08-17T10:53:40.659Z,24.96
2022-08-17T10:56:13.060Z,24.94
2022-08-17T10:58:47.449Z,25.03
2022-08-17T11:01:14.078Z,25.08
2022-08-17T11:03:58.866Z,25.14
2022-08-17T11:06:44.979Z,25.03
2022-08-17T11:09:41.587Z,24.76
2022-08-17T11:12:15.442Z,24.84
2022-08-17T11:15:14.443Z,24.83
2022-08-17T11:17:50.182Z,24.84
2022-08-17T11:20:58.077Z,24.27
2022-08-17T11:23:27.965Z,24.12
2022-08-17T11:25:59.759Z,24.44
2022-08-17T11:28:34.364Z,24.37
2022-08-17T11:31:44.058Z,24.22
2022-08-17T11:34:27.033Z,24.19
2022-08-17T11:37:07.593Z,24.24
2022-08-17T11:39:34.361Z,24.56
2022-08-17T11:42:38.756Z,24.86
2022-08-17T11:45:32.434Z,24.92
2022-08-17T11:48:56.208Z,25.22
2022-08-17T11:51:43.785Z,25.35
2022-08-17T11:54:33.688Z,25.32
2022-08-17T11:57:26.493Z,25.62
2022-08-17T11:59:58.545Z,25.59
2022-08-17T12:02:31.506Z,25.95
2022-08-17T12:05:12.303Z,26.04
2022-08-17T12:07:46.667Z,26.15
2022-08-17T12:10:17.549Z,26.07
2022-08-17T12:12:44.942Z,26.59
2022-08-17T12:15:18.692Z,26.16
2022-08-17T12:17:55.051Z,26.10
2022-08-17T12:20:38.541Z,26.29
2022-08-17T12:23:13.804Z,26.48
2022-08-17T12:25:46.505Z,26.66
2022-08-17T12:28:29.008Z,26.79
2022-08-17T12:31:02.837Z,27.10
2022-08-17T12:33:29.638Z,26.57
2022-08-17T12:36:03.254Z,26.73
2022-08-17T12:38:34.430Z,26.41
2022-08-17T12:41:21.753Z,26.41
2022-08-17T12:43:58.562Z,26.64
2022-08-17T12:46:25.136Z,26.79
2022-08-17T12:49:11.510Z,26.86
2022-08-17T12:51:44.265Z,26.94
2022-08-17T12:54:24.208Z,26.95
2022-08-17T12:56:50.881Z,27.13
2022-08-17T12:59:30.013Z,27.33
2022-08-17T13:01:57.634Z,26.99
2022-08-17T13:04:24.674Z,27.04
2022-08-17T13:06:59.956Z,27.30
2022-08-17T13:09:35.379Z,27.37
2022-08-17T13:12:03.038Z,28.07
2022-08-17T13:14:33.367Z,27.73
2022-08-17T13:17:09.668Z,27.34
2022-08-17T13:19:48.207Z,27.79
2022-08-17T13:22:15.056Z,27.48
2022-08-17T13:24:53.040Z,27.51
2022-08-17T13:27:21.639Z,27.70
2022-08-17T13:29:55.730Z,27.55
2022-08-17T13:32:44.107Z,27.59
2022-08-17T13:35:35.373Z,27.48
2022-08-17T13:38:16.398Z,27.74
2022-08-17T13:40:50.161Z,27.75
2022-08-17T13:43:40.318Z,27.78
2022-08-17T13:46:10.659Z,27.83
2022-08-17T13:48:37.532Z,28.08
2022-08-17T13:51:13.585Z,27.75
2022-08-17T13:53:40.420Z,28.17
2022-08-17T13:56:37.932Z,28.23
2022-08-17T13:59:12.594Z,28.04
2022-08-17T14:01:53.483Z,27.79
2022-08-17T14:04:24.056Z,27.92
2022-08-17T14:07:13.293Z,28.03
2022-08-17T14:09:48.693Z,28.11
2022-08-17T14:12:20.074Z,28.24
2022-08-17T14:14:47.131Z,28.54
2022-08-17T14:17:13.837Z,28.40
2022-08-17T14:19:40.439Z,28.34
2022-08-17T14:22:11.542Z,28.29
2022-08-17T14:24:44.657Z,28.13
2022-08-17T14:27:17.955Z,28.30
2022-08-17T14:29:44.806Z,28.35
2022-08-17T14:32:18.868Z,28.18
2022-08-17T14:34:46.341Z,28.37
2022-08-17T14:37:13.252Z,28.18
2022-08-17T14:39:39.990Z,28.21
2022-08-17T14:42:06.892Z,28.46
2022-08-17T14:44:33.466Z,28.57
2022-08-17T14:47:00.106Z,28.30
2022-08-17T14:49:26.911Z,28.41
2022-08-17T14:51:53.906Z,28.35
2022-08-17T14:54:32.977Z,28.43
2022-08-17T14:57:22.714Z,28.37
2022-08-17T14:59:53.195Z,28.25
2022-08-17T15:02:29.891Z,28.36
2022-08-17T15:05:03.972Z,28.59
2022-08-17T15:07:31.387Z,28.24
2022-08-17T15:10:00.512Z,28.42
2022-08-17T15:12:32.273Z,28.53
2022-08-17T15:15:01.019Z,28.40
2022-08-17T15:17:43.865Z,28.67
2022-08-17T15:20:21.400Z,28.34
2022-08-17T15:22:49.833Z,28.54
2022-08-17T15:25:19.067Z,28.41
2022-08-17T15:27:46.123Z,28.64
2022-08-17T15:30:13.173Z,28.70
2022-08-17T15:32:50.885Z,28.91
2022-08-17T15:35:27.209Z,28.59
2022-08-17T15:37:56.608Z,28.48
2022-08-17T15:40:23.356Z,28.10
2022-08-17T15:42:51.084Z,28.20
2022-08-17T15:45:22.911Z,28.24
2022-08-17T15:47:49.671Z,28.15
2022-08-17T15:50:16.472Z,28.16
2022-08-17T15:52:44.893Z,28.24
2022-08-17T15:55:13.519Z,28.18
2022-08-17T15:57:40.623Z,28.13
2022-08-17T16:00:09.281Z,28.07
2022-08-17T16:03:45.711Z,27.88
2022-08-17T16:05:31.080Z,28.08
2022-08-17T16:07:59.550Z,28.00
2022-08-17T16:10:35.609Z,28.14
2022-08-17T16:13:04.108Z,27.86
2022-08-17T16:15:33.570Z,27.78
2022-08-17T16:18:00.292Z,27.76
2022-08-17T16:20:27.206Z,27.82
2022-08-17T16:22:54.988Z,27.72
2022-08-17T16:25:38.844Z,27.73
2022-08-17T16:28:15.363Z,28.11
2022-08-17T16:30:42.232Z,28.12
2022-08-17T16:33:11.313Z,28.11
2022-08-17T16:35:38.028Z,27.60
2022-08-17T16:38:04.770Z,27.68
2022-08-17T16:40:36.129Z,27.75
2022-08-17T16:43:04.354Z,27.83
2022-08-17T16:45:36.813Z,27.54
2022-08-17T16:48:04.352Z,27.41
2022-08-17T16:50:31.990Z,27.60
2022-08-17T16:53:10.750Z,27.77
2022-08-17T16:55:38.369Z,27.61
2022-08-17T16:58:06.775Z,27.73
2022-08-17T17:00:34.122Z,27.59
2022-08-17T17:03:19.865Z,27.59
2022-08-17T17:06:08.216Z,27.26
2022-08-17T17:08:46.620Z,27.27
2022-08-17T17:11:22.130Z,27.31
2022-08-17T17:13:54.987Z,27.29
2022-08-17T17:16:36.821Z,27.29
2022-08-17T17:19:17.872Z,27.17
2022-08-17T17:22:15.090Z,26.94
2022-08-17T17:25:04.914Z,27.03
2022-08-17T17:28:18.526Z,27.05
2022-08-17T17:30:56.709Z,27.10
2022-08-17T17:33:35.232Z,27.06
2022-08-17T17:36:38.095Z,27.16
2022-08-17T17:39:10.514Z,27.03
2022-08-17T17:41:41.685Z,26.95
2022-08-17T17:44:15.253Z,27.22
2022-08-17T17:46:53.047Z,27.19
2022-08-17T17:49:20.001Z,27.17
2022-08-17T17:52:09.643Z,27.05
2022-08-17T17:55:22.489Z,27.26
2022-08-17T17:58:00.688Z,27.30
2022-08-17T18:00:38.797Z,27.49
2022-08-17T18:03:26.806Z,27.52
2022-08-17T18:06:13.561Z,27.27
2022-08-17T18:09:19.306Z,26.77
2022-08-17T18:12:08.971Z,26.54
2022-08-17T18:14:58.265Z,26.30
2022-08-17T18:17:25.008Z,26.20
2022-08-17T18:19:55.291Z,26.02
2022-08-17T18:22:23.162Z,26.16
2022-08-17T18:24:56.456Z,26.09
2022-08-17T18:27:33.168Z,26.34
2022-08-17T18:30:20.803Z,26.52
2022-08-17T18:32:47.391Z,26.45
2022-08-17T18:35:14.261Z,26.35
2022-08-17T18:37:47.418Z,26.32
2022-08-17T18:40:17.046Z,26.16
2022-08-17T18:42:56.191Z,26.04
2022-08-17T18:45:33.592Z,25.64
2022-08-17T18:48:00.166Z,25.55
2022-08-17T18:50:35.864Z,25.61
2022-08-17T18:53:40.814Z,25.33
2022-08-17T18:56:31.327Z,25.30
2022-08-17T18:59:04.451Z,25.54
2022-08-17T19:01:42.027Z,25.51
2022-08-17T19:05:03.378Z,25.61
2022-08-17T19:07:45.647Z,25.22
2022-08-17T19:10:24.264Z,24.97
2022-08-17T19:13:15.559Z,25.40
2022-08-17T19:16:12.190Z,25.55
2022-08-17T19:18:48.412Z,25.73
2022-08-17T19:21:45.038Z,25.81
2022-08-17T19:24:22.281Z,25.75
2022-08-17T19:27:19.592Z,25.72
2022-08-17T19:30:01.723Z,25.73
2022-08-17T19:32:34.644Z,25.66
2022-08-17T19:35:03.520Z,25.52
2022-08-17T19:37:34.422Z,25.56
2022-08-17T19:40:10.066Z,25.60
2022-08-17T19:42:49.729Z,25.63
2022-08-17T19:45:32.627Z,25.85
2022-08-17T19:48:27.507Z,25.89
2022-08-17T19:51:13.659Z,25.77
2022-08-17T19:54:06.774Z,25.89
2022-08-17T19:56:51.194Z,25.89
2022-08-17T19:59:48.549Z,25.60
2022-08-17T20:02:33.153Z,25.63
2022-08-17T20:05:06.166Z,25.58
2022-08-17T20:07:44.606Z,25.46
2022-08-17T20:10:20.938Z,25.57
2022-08-17T20:12:50.937Z,25.64
2022-08-17T20:15:29.448Z,25.40
2022-08-17T20:17:59.747Z,25.01
2022-08-17T20:20:46.900Z,24.92
2022-08-17T20:23:28.661Z,24.37
2022-08-17T20:26:27.025Z,24.37
2022-08-17T20:29:16.585Z,24.33
2022-08-17T20:31:49.501Z,24.35
2022-08-17T20:34:38.088Z,24.58
2022-08-17T20:37:08.798Z,24.41
2022-08-17T20:39:40.552Z,24.17
2022-08-17T20:42:22.229Z,24.07
2022-08-17T20:44:52.734Z,24.12
2022-08-17T20:47:32.608Z,24.42
2022-08-17T20:50:13.505Z,24.52
2022-08-17T20:52:53.957Z,24.86
2022-08-17T20:55:35.814Z,24.91
2022-08-17T20:58:18.487Z,24.78
2022-08-17T21:00:57.324Z,24.80
2022-08-17T21:03:24.120Z,24.88
2022-08-17T21:06:16.947Z,24.89
2022-08-17T21:09:06.556Z,24.82
2022-08-17T21:11:56.748Z,24.78
2022-08-17T21:14:56.104Z,24.71
2022-08-17T21:17:46.565Z,24.86
2022-08-17T21:21:05.315Z,24.69
2022-08-17T21:23:55.224Z,24.32
2022-08-17T21:26:50.631Z,23.56
2022-08-17T21:29:32.046Z,23.92
2022-08-17T21:31:59.298Z,24.09
2022-08-17T21:34:33.126Z,23.96
2022-08-17T21:37:29.509Z,24.03
2022-08-17T21:40:18.324Z,23.92
2022-08-17T21:42:49.282Z,23.96
2022-08-17T21:45:35.465Z,23.84
2022-08-17T21:48:15.948Z,23.62
2022-08-17T21:51:05.734Z,23.43
2022-08-17T21:53:46.996Z,24.01
2022-08-17T21:56:23.128Z,24.15
2022-08-17T21:58:57.191Z,24.12
2022-08-17T22:01:28.165Z,23.86
2022-08-17T22:03:58.034Z,23.44
2022-08-17T22:06:37.326Z,23.05
2022-08-17T22:09:09.753Z,23.23
2022-08-17T22:11:48.417Z,23.14
2022-08-17T22:14:52.629Z,23.36
2022-08-17T22:17:26.324Z,23.07
2022-08-17T22:20:00.150Z,22.85
2022-08-17T22:22:31.243Z,22.56
2022-08-17T22:25:08.522Z,22.41
2022-08-17T22:27:48.811Z,22.36
2022-08-17T22:30:30.309Z,22.42
2022-08-17T22:32:57.726Z,21.99
2022-08-17T22:35:43.493Z,21.94
2022-08-17T22:38:19.503Z,21.39
2022-08-17T22:40:52.590Z,20.70
2022-08-17T22:43:26.309Z,20.59
2022-08-17T22:45:56.801Z,20.81
2022-08-17T22:48:27.753Z,20.71
2022-08-17T22:51:13.710Z,20.82
2022-08-17T22:54:08.377Z,20.65
2022-08-17T22:56:54.120Z,20.81
2022-08-17T22:59:51.154Z,20.62
2022-08-17T23:02:22.904Z,20.70
2022-08-17T23:05:10.022Z,20.63
2022-08-17T23:07:37.244Z,20.47
2022-08-17T23:10:06.412Z,21.04
2022-08-17T23:12:38.857Z,20.86
2022-08-17T23:15:14.303Z,21.26
2022-08-17T23:17:42.003Z,21.77
2022-08-17T23:20:13.930Z,22.24
2022-08-17T23:22:52.577Z,22.46
2022-08-17T23:25:26.405Z,22.63
2022-08-17T23:27:53.237Z,22.54
2022-08-17T23:30:20.308Z,22.49
2022-08-17T23:32:53.331Z,22.48
2022-08-17T23:35:40.187Z,22.42
2022-08-17T23:38:11.702Z,22.15
2022-08-17T23:40:39.312Z,21.74
2022-08-17T23:43:23.607Z,22.21
2022-08-17T23:45:52.859Z,21.83
2022-08-17T23:48:36.271Z,21.89
2022-08-17T23:51:20.224Z,22.47
2022-08-17T23:53:52.742Z,22.52
2022-08-17T23:56:25.898Z,22.39
2022-08-17T23:58:55.006Z,22.84
